Texas General Land Office
 Texas General Land Office
 George P. Bush, Commissioner

 Oil Spill Prevention
 & Response

Texas Automated Buoy System
Real Time Ocean Observations
Supporting Oil Spill Prevention and
Response since 1995
Geochemical and Environmental Research Group

NOAA - NDBC Buoy 42035 -- Texas Automated Buoy System

NBDC Buoy 42035
Galveston
Conditions at 08/18/2018 07:20 UTC (08/18/2018 02:20 CDT)
29° 14.7830'N   94° 24.5000'W
22NM East of Galveston, TX
Anemometer height: 5m
Water Depth: 52 feet (16 meters)
Wind: 7.0 m/s (13.6 kts)
          From 180°T (S)
Wind Gust: 8.00 m/s (15.6 kts) Pressure: 1017.5 mb (30.05 inHg)
Air Temp: 30°C (85 °F) Dewpoint: 27°C (80°F) Relative Humidity: 85%
Sea Surf Temp: 30 °C (87 °F) Wave Height: -99.0m (-324.8 ft) Wave Period: -99
  


IMPORTANT: Notice to Mariners


   Date      Time    Speed     Dir   Gust    AtmPr   AirT   DewPt   WaterT  RelH  WvHt  WvPer
          |  (UTC) | (m/s) |  (°T) | (m/s) |  (mb) |  (°C) |  (°C) |  (°C) | (%) | (m) | (s) |
==========+========+=======+=======+=======+=======+=======+=======+=======+=====+=====+=====+
08/18/2018 00:00:00     7.0     160     8.0 1017.20    30.1    26.2    30.8    79 -99.0  -99
08/18/2018 00:10:00     6.0     160     8.0 1017.10    30.1    26.4   -99.0    80 -99.0  -99
08/18/2018 00:20:00     6.0     170     8.0 1017.10    30.1    26.3    30.8    80 -99.0  -99
08/18/2018 00:30:00     6.0     170     7.0 1017.20    30.1    26.2    30.8    79 -99.0  -99
08/18/2018 00:40:00     6.0     170     7.0 1017.30    30.0    26.6    30.7    82 -99.0  -99
08/18/2018 00:50:00     6.0     170     7.0 1017.30    30.0    26.7   -99.0    82   0.5    5
08/18/2018 01:00:00     6.0     170     7.0 1017.30    29.9    26.7    30.7    83 -99.0  -99
08/18/2018 01:10:00     6.0     160     8.0 1017.20    29.9    26.5    30.7    82 -99.0  -99
08/18/2018 01:20:00     7.0     170     8.0 1017.20    30.0    26.3    30.7    80 -99.0  -99
08/18/2018 01:30:00     6.0     170     8.0 1017.40    29.9    26.4    30.7    81 -99.0  -99
08/18/2018 01:40:00     6.0     170     8.0 1017.20    29.9    26.4    30.6    81 -99.0  -99
08/18/2018 01:50:00     6.0     170     7.0 1017.40    29.9    26.4    30.6    81   0.6    3
08/18/2018 02:00:00     6.0     170     7.0 1017.40    29.9    26.3    30.6    81 -99.0  -99
08/18/2018 02:10:00     6.0     170     7.0 1017.60    29.9    26.3    30.6    81 -99.0  -99
08/18/2018 02:20:00     6.0     170     7.0 1017.70    29.9    26.5    30.6    82 -99.0  -99
08/18/2018 02:30:00     6.0     160     7.0 1017.70    29.9    26.4    30.6    81 -99.0  -99
08/18/2018 02:40:00     6.0     170     7.0 1017.90    29.9    26.4    30.6    81 -99.0  -99
08/18/2018 02:50:00     6.0     170     7.0 1018.10    29.9    26.7    30.5    83   0.6    3
08/18/2018 03:00:00     6.0     180     7.0 1018.20    29.9    26.6   -99.0    82 -99.0  -99
08/18/2018 03:10:00     6.0     180     7.0 1018.40    29.9    26.7    30.5    83 -99.0  -99
08/18/2018 03:20:00     6.0     180     6.0 1018.50    29.9    26.5    30.5    82 -99.0  -99
08/18/2018 03:30:00     6.0     180     7.0 1018.50    29.9    26.4    30.5    81 -99.0  -99
08/18/2018 03:40:00     6.0     180     7.0 1018.80    29.9    26.7    30.5    83   0.6  -99
08/18/2018 03:50:00     6.0     180     7.0 1018.80    29.9    26.7    30.5    83   0.6    3
08/18/2018 04:00:00     6.0     170     7.0 1018.80    29.9    26.8    30.4    83 -99.0  -99
08/18/2018 04:10:00     6.0     180     7.0 1019.10    29.8    26.8    30.4    84 -99.0  -99
08/18/2018 04:20:00     6.0     180     7.0 1019.00    29.8    26.8    30.4    84 -99.0  -99
08/18/2018 04:30:00     6.0     180     7.0 1019.10    29.8    26.5    30.4    82 -99.0  -99
08/18/2018 04:40:00     6.0     180     7.0 1019.10    29.8    26.3    30.4    81 -99.0  -99
08/18/2018 04:50:00     5.0     170     6.0 1019.00    29.8    26.5    30.4    82   0.6    3
08/18/2018 05:00:00     5.0     180     7.0 1018.90    29.8    26.5    30.4    82 -99.0  -99
08/18/2018 05:10:00     6.0     180     7.0 1018.70    29.8    26.6    30.3    83 -99.0  -99
08/18/2018 05:20:00     6.0     170     7.0 1018.40    29.8    26.8    30.3    84 -99.0  -99
08/18/2018 05:30:00     6.0     180     8.0 1018.20    29.8    26.8   -99.0    84 -99.0  -99
08/18/2018 05:40:00     6.0     170     8.0 1018.10    29.8    26.6    30.3    83 -99.0  -99
08/18/2018 05:50:00     7.0     180     8.0 1018.10    29.7    26.7    30.3    84   0.6    4
08/18/2018 06:00:00     6.0     180     8.0 1018.00    29.7    26.9    30.3    85 -99.0  -99
08/18/2018 06:10:00     7.0     180     8.0 1017.90    29.7    26.7    30.3    84 -99.0  -99
08/18/2018 06:20:00     6.0     180     8.0 1017.90    29.7    26.9    30.3    85 -99.0  -99
08/18/2018 06:30:00     7.0     180     8.0 1017.90    29.7    26.6    30.3    83 -99.0  -99
08/18/2018 06:40:00   -99.0     -99   -99.0  -99.00   -99.0   -99.0   -99.0   100   0.7    4
08/18/2018 06:50:00     7.0     190     8.0 1017.80    29.7    26.8    30.3    84   0.7  -99
08/18/2018 07:00:00     7.0     180     8.0 1017.60    29.7    26.9    30.3    85 -99.0  -99
08/18/2018 07:10:00     7.0     180     9.0 1017.60    29.7    27.0    30.3    85 -99.0  -99
08/18/2018 07:20:00     7.0     180     8.0 1017.50    29.6    26.9    30.3    85 -99.0  -99